sensor_id;sensor_type;location;lat;lon;timestamp;P1;durP1;ratioP1;P2;durP2;ratioP2
8540;SDS011;4308;51.294;6.590;2023-02-17T00:00:38;11.13;;;7.87;;
8540;SDS011;4308;51.294;6.590;2023-02-17T00:03:06;12.57;;;7.93;;
8540;SDS011;4308;51.294;6.590;2023-02-17T00:05:33;11.40;;;8.70;;
8540;SDS011;4308;51.294;6.590;2023-02-17T00:08:01;13.00;;;8.63;;
8540;SDS011;4308;51.294;6.590;2023-02-17T00:10:28;13.93;;;8.20;;
8540;SDS011;4308;51.294;6.590;2023-02-17T00:12:56;13.37;;;8.30;;
8540;SDS011;4308;51.294;6.590;2023-02-17T00:15:23;15.00;;;9.03;;
8540;SDS011;4308;51.294;6.590;2023-02-17T00:17:51;11.87;;;8.20;;
8540;SDS011;4308;51.294;6.590;2023-02-17T00:20:18;10.93;;;8.27;;
8540;SDS011;4308;51.294;6.590;2023-02-17T00:22:46;13.03;;;8.23;;
8540;SDS011;4308;51.294;6.590;2023-02-17T00:25:13;14.27;;;9.50;;
8540;SDS011;4308;51.294;6.590;2023-02-17T00:27:41;11.83;;;8.40;;
8540;SDS011;4308;51.294;6.590;2023-02-17T00:30:09;12.20;;;8.27;;
8540;SDS011;4308;51.294;6.590;2023-02-17T00:32:36;12.60;;;8.30;;
8540;SDS011;4308;51.294;6.590;2023-02-17T00:35:04;12.10;;;8.70;;
8540;SDS011;4308;51.294;6.590;2023-02-17T00:37:33;10.83;;;8.23;;
8540;SDS011;4308;51.294;6.590;2023-02-17T00:40:01;9.90;;;7.57;;
8540;SDS011;4308;51.294;6.590;2023-02-17T00:42:28;11.33;;;8.37;;
8540;SDS011;4308;51.294;6.590;2023-02-17T00:44:56;12.73;;;8.20;;
8540;SDS011;4308;51.294;6.590;2023-02-17T00:47:23;11.37;;;8.00;;
8540;SDS011;4308;51.294;6.590;2023-02-17T00:49:51;13.30;;;8.47;;
8540;SDS011;4308;51.294;6.590;2023-02-17T00:52:18;11.00;;;8.23;;
8540;SDS011;4308;51.294;6.590;2023-02-17T00:54:46;12.90;;;8.20;;
8540;SDS011;4308;51.294;6.590;2023-02-17T00:57:14;15.63;;;9.00;;
8540;SDS011;4308;51.294;6.590;2023-02-17T00:59:41;13.77;;;8.63;;
8540;SDS011;4308;51.294;6.590;2023-02-17T01:02:09;12.00;;;8.47;;
8540;SDS011;4308;51.294;6.590;2023-02-17T01:04:37;13.87;;;7.83;;
8540;SDS011;4308;51.294;6.590;2023-02-17T01:07:05;12.20;;;8.60;;
8540;SDS011;4308;51.294;6.590;2023-02-17T01:09:32;10.67;;;8.43;;
8540;SDS011;4308;51.294;6.590;2023-02-17T01:12:00;10.60;;;8.33;;
8540;SDS011;4308;51.294;6.590;2023-02-17T01:14:27;11.67;;;8.77;;
8540;SDS011;4308;51.294;6.590;2023-02-17T01:16:55;14.03;;;8.60;;
8540;SDS011;4308;51.294;6.590;2023-02-17T01:19:23;13.83;;;8.70;;
8540;SDS011;4308;51.294;6.590;2023-02-17T01:21:50;12.43;;;8.90;;
8540;SDS011;4308;51.294;6.590;2023-02-17T01:24:18;9.30;;;7.53;;
8540;SDS011;4308;51.294;6.590;2023-02-17T01:26:46;10.97;;;7.47;;
8540;SDS011;4308;51.294;6.590;2023-02-17T01:29:13;11.07;;;8.60;;
8540;SDS011;4308;51.294;6.590;2023-02-17T01:31:41;10.10;;;7.70;;
8540;SDS011;4308;51.294;6.590;2023-02-17T01:34:09;12.57;;;8.37;;
8540;SDS011;4308;51.294;6.590;2023-02-17T01:36:36;9.47;;;7.13;;
8540;SDS011;4308;51.294;6.590;2023-02-17T01:39:04;12.20;;;8.53;;
8540;SDS011;4308;51.294;6.590;2023-02-17T01:41:31;10.27;;;7.40;;
8540;SDS011;4308;51.294;6.590;2023-02-17T01:44:07;10.70;;;8.70;;
8540;SDS011;4308;51.294;6.590;2023-02-17T01:46:35;12.40;;;8.40;;
8540;SDS011;4308;51.294;6.590;2023-02-17T01:49:03;10.83;;;7.77;;
8540;SDS011;4308;51.294;6.590;2023-02-17T01:51:33;13.10;;;8.00;;
8540;SDS011;4308;51.294;6.590;2023-02-17T01:54:03;14.47;;;8.77;;
8540;SDS011;4308;51.294;6.590;2023-02-17T01:56:32;10.47;;;8.07;;
8540;SDS011;4308;51.294;6.590;2023-02-17T01:59:05;10.57;;;8.07;;
8540;SDS011;4308;51.294;6.590;2023-02-17T02:01:34;9.07;;;6.87;;
8540;SDS011;4308;51.294;6.590;2023-02-17T02:04:02;9.87;;;7.20;;
8540;SDS011;4308;51.294;6.590;2023-02-17T02:06:30;12.77;;;8.23;;
8540;SDS011;4308;51.294;6.590;2023-02-17T02:09:06;13.17;;;8.03;;
8540;SDS011;4308;51.294;6.590;2023-02-17T02:11:34;9.27;;;7.20;;
8540;SDS011;4308;51.294;6.590;2023-02-17T02:14:02;9.17;;;7.43;;
8540;SDS011;4308;51.294;6.590;2023-02-17T02:29:19;9.87;;;6.90;;
8540;SDS011;4308;51.294;6.590;2023-02-17T02:31:55;13.67;;;7.57;;
8540;SDS011;4308;51.294;6.590;2023-02-17T02:34:26;10.73;;;7.47;;
8540;SDS011;4308;51.294;6.590;2023-02-17T02:37:00;9.83;;;7.80;;
8540;SDS011;4308;51.294;6.590;2023-02-17T02:39:36;11.97;;;7.20;;
8540;SDS011;4308;51.294;6.590;2023-02-17T02:42:05;9.53;;;7.57;;
8540;SDS011;4308;51.294;6.590;2023-02-17T02:44:33;8.87;;;7.20;;
8540;SDS011;4308;51.294;6.590;2023-02-17T02:47:02;9.33;;;6.80;;
8540;SDS011;4308;51.294;6.590;2023-02-17T02:49:30;10.13;;;7.53;;
8540;SDS011;4308;51.294;6.590;2023-02-17T03:00:00;8.20;;;7.30;;
8540;SDS011;4308;51.294;6.590;2023-02-17T03:02:35;9.77;;;7.20;;
8540;SDS011;4308;51.294;6.590;2023-02-17T03:05:15;10.13;;;7.87;;
8540;SDS011;4308;51.294;6.590;2023-02-17T03:07:48;9.37;;;7.00;;
8540;SDS011;4308;51.294;6.590;2023-02-17T03:10:17;11.47;;;7.33;;
8540;SDS011;4308;51.294;6.590;2023-02-17T03:12:44;8.03;;;6.97;;
8540;SDS011;4308;51.294;6.590;2023-02-17T03:15:15;8.93;;;7.37;;
8540;SDS011;4308;51.294;6.590;2023-02-17T03:17:44;8.77;;;6.60;;
8540;SDS011;4308;51.294;6.590;2023-02-17T03:20:12;9.93;;;6.77;;
8540;SDS011;4308;51.294;6.590;2023-02-17T03:22:40;8.00;;;6.47;;
8540;SDS011;4308;51.294;6.590;2023-02-17T03:25:09;11.10;;;7.60;;
8540;SDS011;4308;51.294;6.590;2023-02-17T03:27:37;7.83;;;6.60;;
8540;SDS011;4308;51.294;6.590;2023-02-17T03:30:04;8.33;;;7.30;;
8540;SDS011;4308;51.294;6.590;2023-02-17T03:32:32;9.43;;;6.93;;
8540;SDS011;4308;51.294;6.590;2023-02-17T03:35:00;8.73;;;6.50;;
8540;SDS011;4308;51.294;6.590;2023-02-17T03:37:27;8.87;;;6.77;;
8540;SDS011;4308;51.294;6.590;2023-02-17T03:39:55;9.67;;;7.10;;
8540;SDS011;4308;51.294;6.590;2023-02-17T03:42:22;10.77;;;8.00;;
8540;SDS011;4308;51.294;6.590;2023-02-17T03:44:50;8.17;;;7.07;;
8540;SDS011;4308;51.294;6.590;2023-02-17T03:47:17;9.63;;;6.73;;
8540;SDS011;4308;51.294;6.590;2023-02-17T03:49:45;9.30;;;6.73;;
8540;SDS011;4308;51.294;6.590;2023-02-17T03:52:12;8.83;;;7.33;;
8540;SDS011;4308;51.294;6.590;2023-02-17T03:54:40;9.50;;;6.50;;
8540;SDS011;4308;51.294;6.590;2023-02-17T03:57:08;9.27;;;7.03;;
8540;SDS011;4308;51.294;6.590;2023-02-17T03:59:35;8.63;;;6.87;;
8540;SDS011;4308;51.294;6.590;2023-02-17T04:02:03;9.60;;;7.57;;
8540;SDS011;4308;51.294;6.590;2023-02-17T04:04:31;8.30;;;7.00;;
8540;SDS011;4308;51.294;6.590;2023-02-17T04:06:58;10.07;;;7.40;;
8540;SDS011;4308;51.294;6.590;2023-02-17T04:09:26;10.20;;;7.27;;
8540;SDS011;4308;51.294;6.590;2023-02-17T04:11:53;8.43;;;7.20;;
8540;SDS011;4308;51.294;6.590;2023-02-17T04:14:21;8.80;;;7.73;;
8540;SDS011;4308;51.294;6.590;2023-02-17T04:16:49;10.57;;;7.30;;
8540;SDS011;4308;51.294;6.590;2023-02-17T04:19:16;9.30;;;7.20;;
8540;SDS011;4308;51.294;6.590;2023-02-17T04:21:46;10.03;;;7.67;;
8540;SDS011;4308;51.294;6.590;2023-02-17T04:24:14;9.67;;;7.37;;
8540;SDS011;4308;51.294;6.590;2023-02-17T04:26:42;10.17;;;7.80;;
8540;SDS011;4308;51.294;6.590;2023-02-17T04:29:09;9.00;;;7.30;;
8540;SDS011;4308;51.294;6.590;2023-02-17T04:31:37;7.57;;;6.77;;
8540;SDS011;4308;51.294;6.590;2023-02-17T04:34:04;8.93;;;6.40;;
8540;SDS011;4308;51.294;6.590;2023-02-17T04:36:32;10.90;;;7.57;;
8540;SDS011;4308;51.294;6.590;2023-02-17T04:38:59;10.23;;;7.63;;
8540;SDS011;4308;51.294;6.590;2023-02-17T04:41:27;9.93;;;7.33;;
8540;SDS011;4308;51.294;6.590;2023-02-17T04:43:55;7.63;;;6.70;;
8540;SDS011;4308;51.294;6.590;2023-02-17T04:46:22;10.23;;;7.70;;
8540;SDS011;4308;51.294;6.590;2023-02-17T04:48:50;8.07;;;7.03;;
8540;SDS011;4308;51.294;6.590;2023-02-17T04:51:17;8.73;;;7.77;;
8540;SDS011;4308;51.294;6.590;2023-02-17T04:53:45;11.43;;;8.53;;
8540;SDS011;4308;51.294;6.590;2023-02-17T04:56:12;10.17;;;8.23;;
8540;SDS011;4308;51.294;6.590;2023-02-17T04:58:40;10.93;;;8.00;;
8540;SDS011;4308;51.294;6.590;2023-02-17T05:01:07;12.07;;;8.70;;
8540;SDS011;4308;51.294;6.590;2023-02-17T05:03:35;8.70;;;7.67;;
8540;SDS011;4308;51.294;6.590;2023-02-17T05:06:03;10.43;;;8.07;;
8540;SDS011;4308;51.294;6.590;2023-02-17T05:08:31;9.53;;;7.77;;
8540;SDS011;4308;51.294;6.590;2023-02-17T05:10:58;9.00;;;6.80;;
8540;SDS011;4308;51.294;6.590;2023-02-17T05:13:26;12.63;;;7.77;;
8540;SDS011;4308;51.294;6.590;2023-02-17T05:15:53;8.33;;;6.87;;
8540;SDS011;4308;51.294;6.590;2023-02-17T05:18:21;8.33;;;6.50;;
8540;SDS011;4308;51.294;6.590;2023-02-17T05:20:49;9.30;;;7.10;;
8540;SDS011;4308;51.294;6.590;2023-02-17T05:23:16;8.60;;;7.27;;
8540;SDS011;4308;51.294;6.590;2023-02-17T05:25:44;8.53;;;7.20;;
8540;SDS011;4308;51.294;6.590;2023-02-17T05:28:11;7.73;;;6.30;;
8540;SDS011;4308;51.294;6.590;2023-02-17T05:30:39;8.47;;;6.73;;
8540;SDS011;4308;51.294;6.590;2023-02-17T05:33:06;8.40;;;6.83;;
8540;SDS011;4308;51.294;6.590;2023-02-17T05:35:34;8.13;;;6.90;;
8540;SDS011;4308;51.294;6.590;2023-02-17T05:38:02;8.47;;;6.80;;
8540;SDS011;4308;51.294;6.590;2023-02-17T05:40:29;9.23;;;7.10;;
8540;SDS011;4308;51.294;6.590;2023-02-17T05:42:57;9.43;;;7.30;;
8540;SDS011;4308;51.294;6.590;2023-02-17T05:45:24;10.00;;;7.90;;
8540;SDS011;4308;51.294;6.590;2023-02-17T05:47:52;9.57;;;7.70;;
8540;SDS011;4308;51.294;6.590;2023-02-17T05:50:19;13.63;;;8.63;;
8540;SDS011;4308;51.294;6.590;2023-02-17T05:52:47;12.20;;;8.03;;
8540;SDS011;4308;51.294;6.590;2023-02-17T05:55:15;12.27;;;8.10;;
8540;SDS011;4308;51.294;6.590;2023-02-17T05:57:42;9.33;;;7.30;;
8540;SDS011;4308;51.294;6.590;2023-02-17T06:00:10;9.70;;;7.30;;
8540;SDS011;4308;51.294;6.590;2023-02-17T06:02:38;9.60;;;6.93;;
8540;SDS011;4308;51.294;6.590;2023-02-17T06:05:06;8.40;;;6.60;;
8540;SDS011;4308;51.294;6.590;2023-02-17T06:07:33;8.90;;;6.97;;
8540;SDS011;4308;51.294;6.590;2023-02-17T06:10:01;8.53;;;6.37;;
8540;SDS011;4308;51.294;6.590;2023-02-17T06:12:29;8.00;;;5.93;;
8540;SDS011;4308;51.294;6.590;2023-02-17T06:14:56;8.73;;;6.47;;
8540;SDS011;4308;51.294;6.590;2023-02-17T06:17:24;7.13;;;5.63;;
8540;SDS011;4308;51.294;6.590;2023-02-17T06:19:52;7.53;;;6.20;;
8540;SDS011;4308;51.294;6.590;2023-02-17T06:22:19;12.70;;;6.93;;
8540;SDS011;4308;51.294;6.590;2023-02-17T06:24:47;8.17;;;6.20;;
8540;SDS011;4308;51.294;6.590;2023-02-17T06:27:14;8.03;;;5.87;;
8540;SDS011;4308;51.294;6.590;2023-02-17T06:29:42;7.73;;;6.07;;
8540;SDS011;4308;51.294;6.590;2023-02-17T06:32:10;7.13;;;6.03;;
8540;SDS011;4308;51.294;6.590;2023-02-17T06:34:37;8.03;;;6.47;;
8540;SDS011;4308;51.294;6.590;2023-02-17T06:37:05;10.73;;;6.63;;
8540;SDS011;4308;51.294;6.590;2023-02-17T06:39:33;10.17;;;6.80;;
8540;SDS011;4308;51.294;6.590;2023-02-17T06:42:00;8.40;;;6.00;;
8540;SDS011;4308;51.294;6.590;2023-02-17T06:44:28;9.17;;;6.63;;
8540;SDS011;4308;51.294;6.590;2023-02-17T06:46:55;10.47;;;7.27;;
8540;SDS011;4308;51.294;6.590;2023-02-17T06:49:23;7.93;;;6.63;;
8540;SDS011;4308;51.294;6.590;2023-02-17T06:51:51;7.33;;;6.63;;
8540;SDS011;4308;51.294;6.590;2023-02-17T06:54:19;7.67;;;6.87;;
8540;SDS011;4308;51.294;6.590;2023-02-17T06:56:46;7.07;;;6.10;;
8540;SDS011;4308;51.294;6.590;2023-02-17T06:59:14;8.37;;;6.53;;
8540;SDS011;4308;51.294;6.590;2023-02-17T07:01:41;8.90;;;7.13;;
8540;SDS011;4308;51.294;6.590;2023-02-17T07:04:09;8.13;;;6.90;;
8540;SDS011;4308;51.294;6.590;2023-02-17T07:06:36;8.73;;;7.40;;
8540;SDS011;4308;51.294;6.590;2023-02-17T07:09:04;8.87;;;7.00;;
8540;SDS011;4308;51.294;6.590;2023-02-17T07:11:32;10.17;;;7.50;;
8540;SDS011;4308;51.294;6.590;2023-02-17T07:13:59;7.77;;;6.90;;
8540;SDS011;4308;51.294;6.590;2023-02-17T07:16:27;9.87;;;7.37;;
8540;SDS011;4308;51.294;6.590;2023-02-17T07:18:54;8.23;;;7.33;;
8540;SDS011;4308;51.294;6.590;2023-02-17T07:21:22;14.77;;;6.60;;
8540;SDS011;4308;51.294;6.590;2023-02-17T07:23:49;8.73;;;6.77;;
8540;SDS011;4308;51.294;6.590;2023-02-17T07:26:17;8.17;;;6.80;;
8540;SDS011;4308;51.294;6.590;2023-02-17T07:28:44;8.33;;;6.80;;
8540;SDS011;4308;51.294;6.590;2023-02-17T07:31:13;7.20;;;6.07;;
8540;SDS011;4308;51.294;6.590;2023-02-17T07:33:41;8.07;;;6.73;;
8540;SDS011;4308;51.294;6.590;2023-02-17T07:36:10;9.10;;;6.60;;
8540;SDS011;4308;51.294;6.590;2023-02-17T07:38:38;7.07;;;6.23;;
8540;SDS011;4308;51.294;6.590;2023-02-17T07:43:36;6.70;;;6.00;;
8540;SDS011;4308;51.294;6.590;2023-02-17T07:46:04;9.47;;;6.07;;
8540;SDS011;4308;51.294;6.590;2023-02-17T07:48:33;7.33;;;5.80;;
8540;SDS011;4308;51.294;6.590;2023-02-17T07:51:07;6.43;;;5.80;;
8540;SDS011;4308;51.294;6.590;2023-02-17T07:53:36;9.97;;;5.83;;
8540;SDS011;4308;51.294;6.590;2023-02-17T07:56:04;6.80;;;5.60;;
8540;SDS011;4308;51.294;6.590;2023-02-17T07:58:33;7.57;;;5.90;;
8540;SDS011;4308;51.294;6.590;2023-02-17T08:01:20;7.93;;;7.13;;
8540;SDS011;4308;51.294;6.590;2023-02-17T08:03:48;9.73;;;5.90;;
8540;SDS011;4308;51.294;6.590;2023-02-17T08:06:25;8.07;;;6.50;;
8540;SDS011;4308;51.294;6.590;2023-02-17T08:08:54;9.13;;;6.57;;
8540;SDS011;4308;51.294;6.590;2023-02-17T08:11:21;8.83;;;6.00;;
8540;SDS011;4308;51.294;6.590;2023-02-17T08:13:49;7.43;;;6.00;;
8540;SDS011;4308;51.294;6.590;2023-02-17T08:16:16;7.67;;;5.23;;
8540;SDS011;4308;51.294;6.590;2023-02-17T08:18:44;11.47;;;5.93;;
8540;SDS011;4308;51.294;6.590;2023-02-17T08:21:12;7.87;;;5.47;;
8540;SDS011;4308;51.294;6.590;2023-02-17T08:23:39;7.60;;;5.67;;
8540;SDS011;4308;51.294;6.590;2023-02-17T08:26:07;7.07;;;5.83;;
8540;SDS011;4308;51.294;6.590;2023-02-17T08:28:34;7.90;;;5.33;;
8540;SDS011;4308;51.294;6.590;2023-02-17T08:31:02;7.83;;;5.23;;
8540;SDS011;4308;51.294;6.590;2023-02-17T08:33:30;7.47;;;5.40;;
8540;SDS011;4308;51.294;6.590;2023-02-17T08:35:58;8.17;;;5.67;;
8540;SDS011;4308;51.294;6.590;2023-02-17T08:38:32;6.90;;;5.17;;
8540;SDS011;4308;51.294;6.590;2023-02-17T08:41:00;6.57;;;4.97;;
8540;SDS011;4308;51.294;6.590;2023-02-17T08:43:28;7.47;;;5.07;;
8540;SDS011;4308;51.294;6.590;2023-02-17T08:45:55;6.17;;;5.30;;
8540;SDS011;4308;51.294;6.590;2023-02-17T08:48:23;10.20;;;5.30;;
8540;SDS011;4308;51.294;6.590;2023-02-17T08:50:51;6.93;;;5.40;;
8540;SDS011;4308;51.294;6.590;2023-02-17T08:53:18;6.40;;;5.17;;
8540;SDS011;4308;51.294;6.590;2023-02-17T08:55:46;6.57;;;5.30;;
8540;SDS011;4308;51.294;6.590;2023-02-17T08:58:15;7.87;;;5.07;;
8540;SDS011;4308;51.294;6.590;2023-02-17T09:00:43;7.57;;;5.47;;
8540;SDS011;4308;51.294;6.590;2023-02-17T09:03:10;6.03;;;5.10;;
8540;SDS011;4308;51.294;6.590;2023-02-17T09:05:38;6.30;;;5.03;;
8540;SDS011;4308;51.294;6.590;2023-02-17T09:08:06;6.13;;;4.37;;
8540;SDS011;4308;51.294;6.590;2023-02-17T09:10:33;10.57;;;5.40;;
8540;SDS011;4308;51.294;6.590;2023-02-17T09:13:01;7.57;;;5.20;;
8540;SDS011;4308;51.294;6.590;2023-02-17T09:15:29;6.37;;;5.43;;
8540;SDS011;4308;51.294;6.590;2023-02-17T09:17:57;8.67;;;5.07;;
8540;SDS011;4308;51.294;6.590;2023-02-17T09:20:24;6.87;;;4.73;;
8540;SDS011;4308;51.294;6.590;2023-02-17T09:22:52;8.77;;;5.93;;
8540;SDS011;4308;51.294;6.590;2023-02-17T09:25:20;8.93;;;5.93;;
8540;SDS011;4308;51.294;6.590;2023-02-17T09:27:47;6.90;;;5.33;;
8540;SDS011;4308;51.294;6.590;2023-02-17T09:30:15;8.17;;;6.03;;
8540;SDS011;4308;51.294;6.590;2023-02-17T09:32:43;7.73;;;6.07;;
8540;SDS011;4308;51.294;6.590;2023-02-17T09:35:11;7.10;;;5.80;;
8540;SDS011;4308;51.294;6.590;2023-02-17T09:37:39;7.47;;;5.70;;
8540;SDS011;4308;51.294;6.590;2023-02-17T09:40:07;8.20;;;5.80;;
8540;SDS011;4308;51.294;6.590;2023-02-17T09:42:37;7.53;;;6.07;;
8540;SDS011;4308;51.294;6.590;2023-02-17T09:45:09;7.17;;;5.73;;
8540;SDS011;4308;51.294;6.590;2023-02-17T09:50:17;7.13;;;5.90;;
8540;SDS011;4308;51.294;6.590;2023-02-17T09:55:37;6.57;;;4.87;;
8540;SDS011;4308;51.294;6.590;2023-02-17T10:00:37;5.40;;;4.40;;
8540;SDS011;4308;51.294;6.590;2023-02-17T10:05:54;6.30;;;4.87;;
8540;SDS011;4308;51.294;6.590;2023-02-17T10:08:29;9.13;;;4.87;;
8540;SDS011;4308;51.294;6.590;2023-02-17T10:11:00;5.67;;;4.53;;
8540;SDS011;4308;51.294;6.590;2023-02-17T10:13:31;6.33;;;4.80;;
8540;SDS011;4308;51.294;6.590;2023-02-17T10:16:03;7.73;;;4.90;;
8540;SDS011;4308;51.294;6.590;2023-02-17T10:18:33;8.03;;;5.67;;
8540;SDS011;4308;51.294;6.590;2023-02-17T10:21:03;7.87;;;5.17;;
8540;SDS011;4308;51.294;6.590;2023-02-17T10:23:31;7.47;;;4.47;;
8540;SDS011;4308;51.294;6.590;2023-02-17T10:28:46;5.60;;;4.10;;
8540;SDS011;4308;51.294;6.590;2023-02-17T10:38:48;6.30;;;4.63;;
8540;SDS011;4308;51.294;6.590;2023-02-17T10:41:18;5.93;;;4.00;;
8540;SDS011;4308;51.294;6.590;2023-02-17T10:43:46;6.17;;;4.40;;
8540;SDS011;4308;51.294;6.590;2023-02-17T10:46:15;7.40;;;4.20;;
8540;SDS011;4308;51.294;6.590;2023-02-17T10:51:12;5.70;;;4.33;;
8540;SDS011;4308;51.294;6.590;2023-02-17T10:53:40;4.57;;;3.93;;
8540;SDS011;4308;51.294;6.590;2023-02-17T10:56:11;6.00;;;4.10;;
8540;SDS011;4308;51.294;6.590;2023-02-17T11:01:27;5.00;;;3.50;;
8540;SDS011;4308;51.294;6.590;2023-02-17T11:03:58;4.33;;;3.60;;
8540;SDS011;4308;51.294;6.590;2023-02-17T11:06:26;4.93;;;3.93;;
8540;SDS011;4308;51.294;6.590;2023-02-17T11:08:59;4.97;;;3.47;;
8540;SDS011;4308;51.294;6.590;2023-02-17T11:11:29;5.63;;;3.73;;
8540;SDS011;4308;51.294;6.590;2023-02-17T11:14:09;4.87;;;3.23;;
8540;SDS011;4308;51.294;6.590;2023-02-17T11:19:05;4.47;;;3.20;;
8540;SDS011;4308;51.294;6.590;2023-02-17T11:21:33;4.80;;;3.80;;
8540;SDS011;4308;51.294;6.590;2023-02-17T11:24:04;6.03;;;3.97;;
8540;SDS011;4308;51.294;6.590;2023-02-17T11:26:33;5.40;;;3.67;;
8540;SDS011;4308;51.294;6.590;2023-02-17T11:29:14;6.40;;;4.03;;
8540;SDS011;4308;51.294;6.590;2023-02-17T11:31:52;5.87;;;3.67;;
8540;SDS011;4308;51.294;6.590;2023-02-17T11:34:21;4.27;;;3.10;;
8540;SDS011;4308;51.294;6.590;2023-02-17T11:39:47;5.27;;;3.00;;
8540;SDS011;4308;51.294;6.590;2023-02-17T11:42:15;4.90;;;3.10;;
8540;SDS011;4308;51.294;6.590;2023-02-17T11:44:43;5.03;;;3.43;;
8540;SDS011;4308;51.294;6.590;2023-02-17T11:50:00;3.20;;;2.77;;
8540;SDS011;4308;51.294;6.590;2023-02-17T11:52:45;3.80;;;2.93;;
8540;SDS011;4308;51.294;6.590;2023-02-17T12:06:11;4.20;;;2.70;;
8540;SDS011;4308;51.294;6.590;2023-02-17T12:11:45;3.93;;;3.00;;
8540;SDS011;4308;51.294;6.590;2023-02-17T12:22:17;4.37;;;3.03;;
8540;SDS011;4308;51.294;6.590;2023-02-17T12:37:22;6.87;;;3.17;;
8540;SDS011;4308;51.294;6.590;2023-02-17T12:39:52;3.73;;;2.90;;
8540;SDS011;4308;51.294;6.590;2023-02-17T12:44:49;4.20;;;3.10;;
8540;SDS011;4308;51.294;6.590;2023-02-17T12:49:49;5.53;;;3.57;;
8540;SDS011;4308;51.294;6.590;2023-02-17T12:52:26;6.00;;;3.30;;
8540;SDS011;4308;51.294;6.590;2023-02-17T12:54:56;4.57;;;3.53;;
8540;SDS011;4308;51.294;6.590;2023-02-17T12:57:26;3.47;;;2.90;;
8540;SDS011;4308;51.294;6.590;2023-02-17T12:59:59;4.00;;;3.30;;
8540;SDS011;4308;51.294;6.590;2023-02-17T13:02:27;3.97;;;3.03;;
8540;SDS011;4308;51.294;6.590;2023-02-17T13:04:55;6.10;;;3.20;;
8540;SDS011;4308;51.294;6.590;2023-02-17T13:07:38;5.83;;;3.30;;
8540;SDS011;4308;51.294;6.590;2023-02-17T13:10:17;6.60;;;3.57;;
8540;SDS011;4308;51.294;6.590;2023-02-17T13:12:53;4.83;;;2.57;;
8540;SDS011;4308;51.294;6.590;2023-02-17T13:15:26;5.90;;;2.80;;
8540;SDS011;4308;51.294;6.590;2023-02-17T13:18:01;3.70;;;2.83;;
8540;SDS011;4308;51.294;6.590;2023-02-17T13:23:25;2.87;;;2.57;;
8540;SDS011;4308;51.294;6.590;2023-02-17T13:26:10;3.67;;;1.97;;
8540;SDS011;4308;51.294;6.590;2023-02-17T13:28:39;3.73;;;2.27;;
8540;SDS011;4308;51.294;6.590;2023-02-17T13:31:08;2.27;;;1.97;;
8540;SDS011;4308;51.294;6.590;2023-02-17T13:36:14;2.83;;;1.73;;
8540;SDS011;4308;51.294;6.590;2023-02-17T13:38:51;2.10;;;1.73;;
8540;SDS011;4308;51.294;6.590;2023-02-17T13:41:19;6.33;;;2.10;;
8540;SDS011;4308;51.294;6.590;2023-02-17T13:43:46;6.57;;;1.83;;
8540;SDS011;4308;51.294;6.590;2023-02-17T13:46:15;6.07;;;2.10;;
8540;SDS011;4308;51.294;6.590;2023-02-17T13:48:45;3.00;;;1.70;;
8540;SDS011;4308;51.294;6.590;2023-02-17T13:51:25;2.57;;;1.93;;
8540;SDS011;4308;51.294;6.590;2023-02-17T13:53:53;1.97;;;1.67;;
8540;SDS011;4308;51.294;6.590;2023-02-17T13:56:25;5.20;;;1.70;;
8540;SDS011;4308;51.294;6.590;2023-02-17T13:58:53;3.07;;;1.70;;
8540;SDS011;4308;51.294;6.590;2023-02-17T14:01:21;2.23;;;1.67;;
8540;SDS011;4308;51.294;6.590;2023-02-17T14:03:51;3.80;;;2.13;;
8540;SDS011;4308;51.294;6.590;2023-02-17T14:06:26;1.93;;;1.80;;
8540;SDS011;4308;51.294;6.590;2023-02-17T14:08:54;3.13;;;1.67;;
8540;SDS011;4308;51.294;6.590;2023-02-17T14:11:23;2.40;;;1.67;;
8540;SDS011;4308;51.294;6.590;2023-02-17T14:13:52;1.50;;;1.40;;
8540;SDS011;4308;51.294;6.590;2023-02-17T14:16:37;1.70;;;1.60;;
8540;SDS011;4308;51.294;6.590;2023-02-17T14:19:06;2.60;;;1.60;;
8540;SDS011;4308;51.294;6.590;2023-02-17T14:21:35;5.30;;;1.50;;
8540;SDS011;4308;51.294;6.590;2023-02-17T14:24:03;2.90;;;1.27;;
8540;SDS011;4308;51.294;6.590;2023-02-17T14:26:36;1.77;;;1.50;;
8540;SDS011;4308;51.294;6.590;2023-02-17T14:29:05;1.30;;;1.20;;
8540;SDS011;4308;51.294;6.590;2023-02-17T14:31:51;3.33;;;1.20;;
8540;SDS011;4308;51.294;6.590;2023-02-17T14:36:47;4.00;;;1.10;;
8540;SDS011;4308;51.294;6.590;2023-02-17T14:39:14;2.63;;;1.10;;
8540;SDS011;4308;51.294;6.590;2023-02-17T14:41:42;1.30;;;1.20;;
8540;SDS011;4308;51.294;6.590;2023-02-17T14:44:09;2.73;;;1.23;;
8540;SDS011;4308;51.294;6.590;2023-02-17T14:46:37;1.70;;;1.03;;
8540;SDS011;4308;51.294;6.590;2023-02-17T14:49:09;2.27;;;1.40;;
8540;SDS011;4308;51.294;6.590;2023-02-17T14:51:40;3.30;;;1.53;;
8540;SDS011;4308;51.294;6.590;2023-02-17T14:54:11;2.33;;;1.30;;
8540;SDS011;4308;51.294;6.590;2023-02-17T14:56:45;3.40;;;1.63;;
8540;SDS011;4308;51.294;6.590;2023-02-17T14:59:14;5.37;;;1.47;;
8540;SDS011;4308;51.294;6.590;2023-02-17T15:01:42;1.93;;;1.43;;
8540;SDS011;4308;51.294;6.590;2023-02-17T15:04:10;1.60;;;1.30;;
8540;SDS011;4308;51.294;6.590;2023-02-17T15:06:39;2.40;;;2.20;;
8540;SDS011;4308;51.294;6.590;2023-02-17T15:09:14;3.77;;;1.90;;
8540;SDS011;4308;51.294;6.590;2023-02-17T15:11:42;2.13;;;1.87;;
8540;SDS011;4308;51.294;6.590;2023-02-17T15:14:11;2.80;;;2.37;;
8540;SDS011;4308;51.294;6.590;2023-02-17T15:16:39;2.37;;;2.00;;
8540;SDS011;4308;51.294;6.590;2023-02-17T15:19:10;3.70;;;2.60;;
8540;SDS011;4308;51.294;6.590;2023-02-17T15:21:39;2.80;;;2.60;;
8540;SDS011;4308;51.294;6.590;2023-02-17T15:24:16;2.80;;;2.50;;
8540;SDS011;4308;51.294;6.590;2023-02-17T15:26:45;4.73;;;2.70;;
8540;SDS011;4308;51.294;6.590;2023-02-17T15:29:16;3.83;;;3.10;;
8540;SDS011;4308;51.294;6.590;2023-02-17T15:31:44;2.47;;;2.27;;
8540;SDS011;4308;51.294;6.590;2023-02-17T15:34:16;3.47;;;3.17;;
8540;SDS011;4308;51.294;6.590;2023-02-17T15:36:44;3.80;;;2.73;;
8540;SDS011;4308;51.294;6.590;2023-02-17T15:39:12;3.10;;;2.80;;
8540;SDS011;4308;51.294;6.590;2023-02-17T15:41:41;2.87;;;2.47;;
8540;SDS011;4308;51.294;6.590;2023-02-17T15:44:19;2.80;;;2.50;;
8540;SDS011;4308;51.294;6.590;2023-02-17T15:46:51;2.60;;;2.40;;
8540;SDS011;4308;51.294;6.590;2023-02-17T15:49:19;4.63;;;2.90;;
8540;SDS011;4308;51.294;6.590;2023-02-17T15:51:47;4.03;;;2.63;;
8540;SDS011;4308;51.294;6.590;2023-02-17T15:54:15;4.87;;;2.77;;
8540;SDS011;4308;51.294;6.590;2023-02-17T15:56:47;2.50;;;2.30;;
8540;SDS011;4308;51.294;6.590;2023-02-17T15:59:22;4.00;;;2.57;;
8540;SDS011;4308;51.294;6.590;2023-02-17T16:01:54;3.87;;;2.30;;
8540;SDS011;4308;51.294;6.590;2023-02-17T16:04:25;5.23;;;2.70;;
8540;SDS011;4308;51.294;6.590;2023-02-17T16:06:55;4.80;;;2.70;;
8540;SDS011;4308;51.294;6.590;2023-02-17T16:09:26;3.70;;;2.87;;
8540;SDS011;4308;51.294;6.590;2023-02-17T16:11:54;3.33;;;2.80;;
8540;SDS011;4308;51.294;6.590;2023-02-17T16:14:32;3.30;;;2.70;;
8540;SDS011;4308;51.294;6.590;2023-02-17T16:17:00;5.93;;;2.60;;
8540;SDS011;4308;51.294;6.590;2023-02-17T16:19:28;3.20;;;2.70;;
8540;SDS011;4308;51.294;6.590;2023-02-17T16:21:56;3.20;;;2.90;;
8540;SDS011;4308;51.294;6.590;2023-02-17T16:24:23;3.33;;;2.80;;
8540;SDS011;4308;51.294;6.590;2023-02-17T16:26:51;4.00;;;3.33;;
8540;SDS011;4308;51.294;6.590;2023-02-17T16:29:19;6.50;;;3.00;;
8540;SDS011;4308;51.294;6.590;2023-02-17T16:31:47;3.13;;;2.60;;
8540;SDS011;4308;51.294;6.590;2023-02-17T16:34:15;4.00;;;3.30;;
8540;SDS011;4308;51.294;6.590;2023-02-17T16:36:43;4.73;;;3.23;;
8540;SDS011;4308;51.294;6.590;2023-02-17T16:39:12;4.50;;;3.00;;
8540;SDS011;4308;51.294;6.590;2023-02-17T16:41:40;5.13;;;2.77;;
8540;SDS011;4308;51.294;6.590;2023-02-17T16:44:15;3.27;;;2.97;;
8540;SDS011;4308;51.294;6.590;2023-02-17T16:46:45;4.67;;;3.20;;
8540;SDS011;4308;51.294;6.590;2023-02-17T16:49:26;4.03;;;3.63;;
8540;SDS011;4308;51.294;6.590;2023-02-17T16:51:55;3.93;;;3.50;;
8540;SDS011;4308;51.294;6.590;2023-02-17T16:54:23;5.20;;;3.40;;
8540;SDS011;4308;51.294;6.590;2023-02-17T16:56:51;4.00;;;3.50;;
8540;SDS011;4308;51.294;6.590;2023-02-17T16:59:19;4.97;;;3.60;;
8540;SDS011;4308;51.294;6.590;2023-02-17T17:01:47;5.40;;;3.70;;
8540;SDS011;4308;51.294;6.590;2023-02-17T17:04:15;9.33;;;4.33;;
8540;SDS011;4308;51.294;6.590;2023-02-17T17:06:44;4.60;;;3.60;;
8540;SDS011;4308;51.294;6.590;2023-02-17T17:09:19;5.23;;;4.20;;